Time;durP1;ratioP1;P1;durP2;ratioP2;P2;SDS_P1;SDS_P2;PMS_P1;PMS_P2;Temp;Humidity;BMP_temperature;BMP_pressure;BME280_temperature;BME280_humidity;BME280_pressure;Samples;Min_cycle;Max_cycle;Signal;HPM_P1;HPM_P2
2022/10/22 00:00:21;;;;;;;;;;;;;;;8.06;70.37;100752.44;4969091;28;20004;-87
2022/10/22 00:02:47;;;;;;;;;;;;;;;7.84;71.89;100746.94;4969392;28;20352;-87
2022/10/22 00:05:12;;;;;;;;;;;;;;;8.03;71.48;100749.78;4969822;28;19918;-87
2022/10/22 00:07:37;;;;;;;;;;;;;;;8.23;70.59;100753.56;4968739;28;20297;-89
2022/10/22 00:10:03;;;;;;;;;;;;;;;8.17;71.21;100748.22;4969195;28;20004;-87
2022/10/22 00:12:29;;;;;;;;;;;;;;;8.25;70.98;100740.44;4966633;28;20675;-86
2022/10/22 00:14:54;;;;;;;;;;;;;;;8.25;71.13;100722.91;4968967;28;19972;-90
2022/10/22 00:17:19;;;;;;;;;;;;;;;8.39;70.46;100735.31;4969001;28;19929;-89
2022/10/22 00:19:45;;;;;;;;;;;;;;;8.34;70.11;100739.63;4967686;28;19918;-87
2022/10/22 00:22:11;;;;;;;;;;;;;;;8.32;69.66;100731.72;4968972;28;19925;-87
2022/10/22 00:24:37;;;;;;;;;;;;;;;8.23;68.98;100729.91;4969004;28;19918;-87
2022/10/22 00:27:03;;;;;;;;;;;;;;;8.12;69.01;100723.63;4968442;28;19961;-88
2022/10/22 00:29:28;;;;;;;;;;;;;;;8.22;67.31;100722.00;4968168;28;19965;-88
2022/10/22 00:31:53;;;;;;;;;;;;;;;7.72;68.66;100717.88;4968993;28;19980;-88
2022/10/22 00:34:20;;;;;;;;;;;;;;;7.80;68.61;100724.13;4969050;28;19913;-87
2022/10/22 00:36:46;;;;;;;;;;;;;;;7.87;67.83;100723.31;4969270;28;19925;-87
2022/10/22 00:39:14;;;;;;;;;;;;;;;7.86;68.09;100718.97;4968621;28;19922;-87
2022/10/22 00:41:41;;;;;;;;;;;;;;;7.85;67.46;100721.56;4968452;28;19914;-87
2022/10/22 00:44:06;;;;;;;;;;;;;;;7.86;66.43;100716.34;4968399;28;20415;-89
2022/10/22 00:46:32;;;;;;;;;;;;;;;7.44;66.65;100714.88;4967433;28;19918;-89
2022/10/22 00:48:59;;;;;;;;;;;;;;;7.58;66.30;100709.81;4967366;28;19921;-87
2022/10/22 00:51:27;;;;;;;;;;;;;;;7.46;66.72;100715.81;4968920;28;19925;-89
2022/10/22 00:53:59;;;;;;;;;;;;;;;7.50;66.69;100714.09;4968967;28;19925;-87
2022/10/22 00:56:24;;;;;;;;;;;;;;;7.59;66.75;100710.72;4968045;28;19926;-87
2022/10/22 00:58:55;;;;;;;;;;;;;;;7.68;66.40;100711.72;4968177;28;20439;-87
2022/10/22 01:01:23;;;;;;;;;;;;;;;7.60;66.79;100699.34;4951171;28;19917;-87
2022/10/22 01:03:49;;;;;;;;;;;;;;;7.70;66.91;100698.59;4968486;28;19918;-86
2022/10/22 01:06:21;;;;;;;;;;;;;;;7.70;66.86;100699.47;4968079;28;19926;-86
2022/10/22 01:08:47;;;;;;;;;;;;;;;7.68;66.77;100697.72;4968155;28;19925;-88
2022/10/22 01:11:15;;;;;;;;;;;;;;;7.51;67.33;100695.72;4968077;28;19921;-88
2022/10/22 01:14:12;;;;;;;;;;;;;;;7.42;66.75;100689.50;4968809;28;19989;-88
2022/10/22 01:16:46;;;;;;;;;;;;;;;7.42;67.47;100692.97;4935502;28;19917;-88
2022/10/22 01:19:26;;;;;;;;;;;;;;;7.56;66.87;100693.16;4950920;28;20368;-87
2022/10/22 01:21:57;;;;;;;;;;;;;;;7.59;66.74;100698.47;4968576;28;20489;-86
2022/10/22 01:24:23;;;;;;;;;;;;;;;7.52;66.90;100688.72;4968603;28;19918;-86
2022/10/22 01:26:57;;;;;;;;;;;;;;;7.48;67.53;100686.94;4957748;28;20705;-86
2022/10/22 01:29:29;;;;;;;;;;;;;;;7.46;67.20;100689.56;4948446;29;19969;-87
2022/10/22 01:31:59;;;;;;;;;;;;;;;7.40;67.55;100678.97;4948866;29;19930;-90
2022/10/22 01:34:26;;;;;;;;;;;;;;;7.58;67.52;100688.81;4951795;28;19969;-87
2022/10/22 01:36:53;;;;;;;;;;;;;;;7.50;67.23;100690.47;4949502;29;20013;-87
2022/10/22 01:39:19;;;;;;;;;;;;;;;7.48;68.11;100693.06;4948751;29;19929;-87
2022/10/22 01:41:45;;;;;;;;;;;;;;;7.43;68.30;100692.13;4951834;28;19927;-87
2022/10/22 01:44:22;;;;;;;;;;;;;;;7.55;67.02;100688.78;4953634;28;20332;-88
2022/10/22 01:46:50;;;;;;;;;;;;;;;7.41;66.59;100692.97;4972251;28;19953;-88
2022/10/22 01:49:23;;;;;;;;;;;;;;;7.30;65.96;100685.81;4954773;28;20324;-88
2022/10/22 01:52:07;;;;;;;;;;;;;;;7.25;66.08;100684.00;4971900;28;19949;-87
2022/10/22 01:54:44;;;;;;;;;;;;;;;7.24;66.47;100688.34;4968347;28;19914;-88
2022/10/22 01:57:12;;;;;;;;;;;;;;;7.15;67.18;100689.13;4952425;29;19929;-88
2022/10/22 01:59:44;;;;;;;;;;;;;;;7.08;67.67;100684.63;4952743;29;20005;-89
2022/10/22 02:02:25;;;;;;;;;;;;;;;7.09;67.90;100689.03;4952790;29;20056;-88
2022/10/22 02:05:03;;;;;;;;;;;;;;;7.06;68.58;100694.22;4958603;28;19918;-89
2022/10/22 02:07:31;;;;;;;;;;;;;;;7.13;68.13;100690.81;4971818;28;19918;-88
2022/10/22 02:09:58;;;;;;;;;;;;;;;7.25;68.04;100691.88;4971914;28;19992;-88
2022/10/22 02:12:25;;;;;;;;;;;;;;;7.19;68.36;100692.66;4971397;28;19945;-88
2022/10/22 02:14:51;;;;;;;;;;;;;;;7.15;68.94;100694.38;4970893;28;19918;-88
2022/10/22 02:17:19;;;;;;;;;;;;;;;7.26;68.85;100698.88;4971785;28;19918;-87
2022/10/22 02:19:56;;;;;;;;;;;;;;;7.32;69.24;100697.22;4971666;28;19922;-88
2022/10/22 02:22:22;;;;;;;;;;;;;;;7.33;69.56;100693.72;4954000;28;20024;-89
2022/10/22 02:24:48;;;;;;;;;;;;;;;7.44;69.63;100690.38;4971481;28;19925;-86
2022/10/22 02:27:13;;;;;;;;;;;;;;;7.43;69.95;100694.75;4969654;28;20710;-87
2022/10/22 02:29:40;;;;;;;;;;;;;;;7.45;69.69;100700.03;4953910;28;20401;-86
2022/10/22 02:32:07;;;;;;;;;;;;;;;7.42;69.98;100703.47;4971162;28;19972;-88
2022/10/22 02:34:33;;;;;;;;;;;;;;;7.35;69.94;100699.00;4971546;28;20068;-89
2022/10/22 02:37:00;;;;;;;;;;;;;;;7.30;70.23;100695.44;4972921;28;20036;-87
2022/10/22 02:39:26;;;;;;;;;;;;;;;7.24;70.20;100703.22;4954650;28;20363;-88
2022/10/22 02:41:51;;;;;;;;;;;;;;;7.29;70.05;100701.53;4971989;28;19914;-89
2022/10/22 02:44:19;;;;;;;;;;;;;;;7.16;70.51;100703.97;4971835;28;19921;-88
2022/10/22 02:46:45;;;;;;;;;;;;;;;7.11;70.69;100703.03;4973593;28;19910;-90
2022/10/22 02:49:10;;;;;;;;;;;;;;;7.07;69.92;100701.22;4973580;28;19973;-88
2022/10/22 02:51:35;;;;;;;;;;;;;;;7.02;69.71;100699.41;4970848;28;19918;-89
2022/10/22 02:54:01;;;;;;;;;;;;;;;6.97;69.05;100707.19;4970593;28;19924;-91
2022/10/22 02:56:26;;;;;;;;;;;;;;;7.00;69.02;100699.38;4976321;28;19918;-86
2022/10/22 02:58:51;;;;;;;;;;;;;;;7.07;69.04;100703.84;4974993;28;20004;-88
2022/10/22 03:01:17;;;;;;;;;;;;;;;7.11;68.55;100702.16;4974943;28;19918;-86
2022/10/22 03:03:42;;;;;;;;;;;;;;;6.97;68.46;100705.44;4972074;28;19914;-91
2022/10/22 03:06:07;;;;;;;;;;;;;;;6.93;68.40;100706.25;4972400;28;19914;-88
2022/10/22 03:08:33;;;;;;;;;;;;;;;6.91;68.21;100700.09;4953505;28;20317;-89
2022/10/22 03:10:58;;;;;;;;;;;;;;;6.92;67.75;100700.97;4974404;28;19918;-88
2022/10/22 03:13:23;;;;;;;;;;;;;;;6.84;67.85;100705.22;4970912;28;19922;-89
2022/10/22 03:15:49;;;;;;;;;;;;;;;6.55;67.99;100710.84;4970215;28;19929;-89
2022/10/22 03:18:14;;;;;;;;;;;;;;;6.49;68.77;100698.53;4970653;28;20285;-87
2022/10/22 03:20:40;;;;;;;;;;;;;;;6.48;68.83;100696.75;4953199;28;19914;-88
2022/10/22 03:23:05;;;;;;;;;;;;;;;6.57;68.92;100701.28;4970261;28;20491;-88
2022/10/22 03:25:33;;;;;;;;;;;;;;;6.55;68.59;100697.75;4969837;28;19929;-88
2022/10/22 03:28:01;;;;;;;;;;;;;;;6.68;68.42;100697.09;4952488;28;19918;-88
2022/10/22 03:30:26;;;;;;;;;;;;;;;6.65;68.02;100686.56;4969898;28;19953;-89
2022/10/22 03:32:52;;;;;;;;;;;;;;;6.66;67.87;100680.47;4968980;28;19972;-87
2022/10/22 03:35:17;;;;;;;;;;;;;;;6.66;67.75;100679.56;4969911;28;19914;-87
2022/10/22 03:37:42;;;;;;;;;;;;;;;6.74;66.75;100684.09;4970218;28;19950;-87
2022/10/22 03:40:10;;;;;;;;;;;;;;;6.34;67.76;100683.41;4969948;28;19918;-88
2022/10/22 03:42:35;;;;;;;;;;;;;;;6.14;67.43;100677.78;4969771;28;19914;-86
2022/10/22 03:45:00;;;;;;;;;;;;;;;5.83;67.79;100682.41;4969478;28;19918;-86
2022/10/22 03:47:26;;;;;;;;;;;;;;;5.80;68.27;100691.94;4968271;28;19922;-86
2022/10/22 03:49:52;;;;;;;;;;;;;;;5.98;67.96;100686.22;4969436;28;19913;-86
2022/10/22 03:52:17;;;;;;;;;;;;;;;6.07;68.21;100686.38;4969604;28;19925;-88
2022/10/22 03:54:42;;;;;;;;;;;;;;;6.02;68.51;100688.91;4969544;28;20008;-89
2022/10/22 03:57:08;;;;;;;;;;;;;;;5.97;68.11;100690.56;4969227;28;19924;-88
2022/10/22 03:59:35;;;;;;;;;;;;;;;6.05;68.03;100682.88;4951815;28;19925;-87
2022/10/22 04:02:00;;;;;;;;;;;;;;;6.15;67.79;100690.06;4969622;28;20466;-87
2022/10/22 04:04:25;;;;;;;;;;;;;;;6.26;67.55;100683.25;4968374;28;19918;-87
2022/10/22 04:06:51;;;;;;;;;;;;;;;6.32;67.55;100679.88;4968916;28;19921;-87
2022/10/22 04:09:16;;;;;;;;;;;;;;;6.31;67.65;100688.59;4968943;28;20000;-86
2022/10/22 04:11:41;;;;;;;;;;;;;;;6.32;67.44;100685.13;4969351;28;19918;-87
2022/10/22 04:14:07;;;;;;;;;;;;;;;6.26;67.95;100691.13;4968875;28;19998;-86
2022/10/22 04:16:32;;;;;;;;;;;;;;;6.25;68.32;100691.97;4969059;28;20032;-87
2022/10/22 04:18:57;;;;;;;;;;;;;;;6.33;68.59;100693.84;4952117;28;19924;-88
2022/10/22 04:21:23;;;;;;;;;;;;;;;6.26;68.84;100693.75;4988715;28;19949;-88
2022/10/22 04:23:50;;;;;;;;;;;;;;;6.32;68.61;100693.00;4975435;28;20434;-88
2022/10/22 04:26:16;;;;;;;;;;;;;;;6.06;70.07;100692.50;4951460;28;20799;-87
2022/10/22 04:28:41;;;;;;;;;;;;;;;6.19;70.10;100696.22;4968773;28;19914;-86
2022/10/22 04:31:11;;;;;;;;;;;;;;;6.39;69.44;100697.47;4968325;28;19921;-87
2022/10/22 04:33:36;;;;;;;;;;;;;;;6.30;69.93;100699.91;4968767;28;20005;-87
2022/10/22 04:36:09;;;;;;;;;;;;;;;6.41;69.81;100684.38;4969388;28;20367;-87
2022/10/22 04:38:34;;;;;;;;;;;;;;;6.37;70.45;100698.31;4951810;28;19918;-87
2022/10/22 04:41:09;;;;;;;;;;;;;;;6.42;69.97;100701.88;4969141;28;19950;-87
2022/10/22 04:43:34;;;;;;;;;;;;;;;6.45;70.25;100702.81;4968351;28;19929;-89
2022/10/22 04:45:59;;;;;;;;;;;;;;;6.42;70.05;100701.88;4968492;28;19918;-91
2022/10/22 04:48:25;;;;;;;;;;;;;;;6.23;70.60;100708.53;4972341;28;19918;-89
2022/10/22 04:50:50;;;;;;;;;;;;;;;6.33;70.50;100705.22;4968964;28;19922;-89
2022/10/22 04:53:16;;;;;;;;;;;;;;;6.33;70.56;100712.22;4968082;28;20372;-89
2022/10/22 04:55:41;;;;;;;;;;;;;;;6.52;69.77;100705.53;4968395;28;19925;-88
2022/10/22 04:58:06;;;;;;;;;;;;;;;6.51;69.60;100702.06;4968147;28;19952;-89
2022/10/22 05:00:31;;;;;;;;;;;;;;;6.66;69.12;100701.44;4968140;28;20033;-87
2022/10/22 05:02:57;;;;;;;;;;;;;;;6.55;69.15;100696.03;4967707;28;19944;-87
2022/10/22 05:05:22;;;;;;;;;;;;;;;6.63;69.11;100689.16;4969547;28;20379;-84
2022/10/22 05:07:49;;;;;;;;;;;;;;;6.60;69.56;100683.88;4953103;28;19985;-87
2022/10/22 05:10:18;;;;;;;;;;;;;;;6.54;70.07;100683.75;4969817;28;19917;-93
2022/10/22 05:12:43;;;;;;;;;;;;;;;6.55;70.50;100680.28;4971198;28;19929;-90
2022/10/22 05:15:09;;;;;;;;;;;;;;;6.67;70.43;100686.59;4968826;28;19922;-93
2022/10/22 05:17:36;;;;;;;;;;;;;;;6.79;70.05;100684.16;4965930;28;19942;-90
2022/10/22 05:20:01;;;;;;;;;;;;;;;6.72;69.98;100674.44;4975343;28;19921;-90
2022/10/22 05:22:26;;;;;;;;;;;;;;;6.70;70.59;100669.16;4973355;28;19918;-96
2022/10/22 05:24:54;;;;;;;;;;;;;;;6.78;70.87;100677.16;4970538;28;20009;-91
2022/10/22 05:27:19;;;;;;;;;;;;;;;6.84;70.81;100681.63;4966737;28;19919;-91
2022/10/22 05:29:44;;;;;;;;;;;;;;;6.95;70.65;100690.53;4968171;28;20002;-96
2022/10/22 05:32:10;;;;;;;;;;;;;;;7.01;70.64;100687.13;4962955;28;19922;-94
2022/10/22 05:34:35;;;;;;;;;;;;;;;6.94;71.25;100687.03;4943007;28;19936;-94
2022/10/22 05:37:02;;;;;;;;;;;;;;;6.89;71.35;100677.31;4944476;28;19932;-92
2022/10/22 05:39:31;;;;;;;;;;;;;;;7.01;71.61;100693.25;4974553;28;20368;-93
2022/10/22 05:44:30;;;;;;;;;;;;;;;7.13;72.30;100688.19;4936440;29;19927;-91
2022/10/22 05:46:55;;;;;;;;;;;;;;;7.43;72.03;100694.75;4913446;29;19926;-94
2022/10/22 05:49:20;;;;;;;;;;;;;;;7.65;72.04;100689.78;4948079;29;19923;-93
2022/10/22 05:51:49;;;;;;;;;;;;;;;7.83;71.93;100687.41;4935499;29;19949;-95
2022/10/22 05:54:17;;;;;;;;;;;;;;;7.89;71.36;100676.06;4926278;29;19919;-93
2022/10/22 05:56:43;;;;;;;;;;;;;;;8.31;70.49;100669.53;4937892;29;19923;-93
2022/10/22 05:59:09;;;;;;;;;;;;;;;8.43;69.70;100668.72;4918470;29;20512;-91
2022/10/22 06:01:38;;;;;;;;;;;;;;;8.81;69.27;100664.72;4900716;29;19922;-93
2022/10/22 06:04:06;;;;;;;;;;;;;;;8.84;68.38;100662.13;4923133;29;20404;-93
2022/10/22 06:06:43;;;;;;;;;;;;;;;9.12;68.04;100663.19;4923889;29;19918;-96
2022/10/22 06:09:15;;;;;;;;;;;;;;;9.31;67.18;100670.31;4938924;29;19922;-91
2022/10/22 06:11:46;;;;;;;;;;;;;;;9.47;67.52;100665.16;4938297;29;19918;-95
2022/10/22 06:14:20;;;;;;;;;;;;;;;9.71;66.07;100661.72;4945000;29;19914;-93
2022/10/22 06:16:58;;;;;;;;;;;;;;;9.68;65.87;100670.50;4941796;29;20448;-92
2022/10/22 06:19:25;;;;;;;;;;;;;;;9.92;64.65;100667.97;4936294;29;19915;-95
2022/10/22 06:21:51;;;;;;;;;;;;;;;9.91;64.59;100672.34;4937784;29;19918;-96
2022/10/22 06:24:17;;;;;;;;;;;;;;;10.15;64.51;100673.31;4938878;29;19946;-95
2022/10/22 06:26:43;;;;;;;;;;;;;;;10.30;64.00;100673.31;4935561;29;19918;-93
2022/10/22 06:29:11;;;;;;;;;;;;;;;10.25;64.67;100668.91;4919859;29;20389;-93
2022/10/22 06:31:36;;;;;;;;;;;;;;;10.69;63.46;100678.66;4930709;29;19929;-91
2022/10/22 06:34:04;;;;;;;;;;;;;;;10.55;63.13;100668.09;4915579;29;20303;-92
2022/10/22 06:36:38;;;;;;;;;;;;;;;10.59;63.30;100672.50;4916213;29;19919;-92
2022/10/22 06:39:03;;;;;;;;;;;;;;;10.96;62.13;100676.91;4914543;29;20440;-91
2022/10/22 06:41:30;;;;;;;;;;;;;;;11.27;61.48;100672.44;4915297;29;19919;-90
2022/10/22 06:43:56;;;;;;;;;;;;;;;11.44;60.93;100688.25;4897223;29;19930;-90
2022/10/22 06:46:22;;;;;;;;;;;;;;;11.32;61.36;100678.56;4936013;29;19926;-91
2022/10/22 06:48:48;;;;;;;;;;;;;;;11.09;61.52;100689.19;4941822;29;19942;-87
2022/10/22 06:51:14;;;;;;;;;;;;;;;11.17;61.92;100681.25;4943046;29;19918;-90
2022/10/22 06:53:41;;;;;;;;;;;;;;;11.49;60.98;100672.38;4931755;29;20078;-91
2022/10/22 06:56:07;;;;;;;;;;;;;;;11.62;61.12;100682.03;4913989;29;20013;-91
2022/10/22 06:58:32;;;;;;;;;;;;;;;11.77;60.29;100689.00;4931866;29;20045;-91
2022/10/22 07:01:08;;;;;;;;;;;;;;;11.52;59.95;100686.44;4913989;29;20039;-91
2022/10/22 07:03:34;;;;;;;;;;;;;;;11.73;60.64;100692.56;4914574;29;19919;-90
2022/10/22 07:06:04;;;;;;;;;;;;;;;12.05;59.92;100695.09;4932898;29;19915;-91
2022/10/22 07:08:30;;;;;;;;;;;;;;;12.14;58.52;100695.06;4932433;29;19919;-90
2022/10/22 07:10:57;;;;;;;;;;;;;;;12.39;59.00;100699.28;4931919;29;20372;-91
2022/10/22 07:13:22;;;;;;;;;;;;;;;12.66;60.21;100703.53;4931702;29;19917;-92
2022/10/22 07:15:51;;;;;;;;;;;;;;;13.01;56.64;100703.25;4930975;29;19919;-91
2022/10/22 07:18:16;;;;;;;;;;;;;;;12.99;57.04;100704.13;4915087;29;20432;-90
2022/10/22 07:20:43;;;;;;;;;;;;;;;13.16;56.74;100706.63;4931665;29;19915;-90
2022/10/22 07:23:10;;;;;;;;;;;;;;;13.44;55.62;100709.94;4932541;29;19964;-90
2022/10/22 07:25:35;;;;;;;;;;;;;;;13.68;55.15;100689.34;4915489;29;19989;-91
2022/10/22 07:28:00;;;;;;;;;;;;;;;13.69;54.11;100693.75;4915717;29;19914;-91
2022/10/22 07:30:25;;;;;;;;;;;;;;;13.78;54.34;100686.56;4932078;29;19921;-90
2022/10/22 07:32:51;;;;;;;;;;;;;;;13.87;53.48;100693.53;4933117;29;19918;-91
2022/10/22 07:35:16;;;;;;;;;;;;;;;14.17;52.56;100682.53;4915647;29;19915;-90
2022/10/22 07:37:41;;;;;;;;;;;;;;;14.15;52.78;100685.19;4932435;29;20357;-91
2022/10/22 07:40:09;;;;;;;;;;;;;;;14.22;52.12;100672.72;4914260;29;20409;-90
2022/10/22 07:42:34;;;;;;;;;;;;;;;13.48;53.77;100677.19;4932630;29;20417;-93
2022/10/22 07:44:59;;;;;;;;;;;;;;;13.40;54.66;100679.03;4950623;29;19919;-93
2022/10/22 07:47:25;;;;;;;;;;;;;;;13.81;55.78;100671.50;4933988;29;19918;-90
2022/10/22 07:49:50;;;;;;;;;;;;;;;14.14;52.23;100672.81;4950454;28;19918;-91
2022/10/22 07:52:16;;;;;;;;;;;;;;;13.95;51.48;100669.56;4951244;29;20673;-89
2022/10/22 07:54:41;;;;;;;;;;;;;;;13.50;52.78;100672.75;4950314;29;19965;-88
2022/10/22 07:57:07;;;;;;;;;;;;;;;14.25;52.45;100672.66;4948840;29;19918;-88
2022/10/22 07:59:32;;;;;;;;;;;;;;;13.76;52.00;100677.75;4950248;29;19921;-88
2022/10/22 08:01:57;;;;;;;;;;;;;;;13.72;53.29;100672.50;4950457;29;19925;-87
2022/10/22 08:04:23;;;;;;;;;;;;;;;14.39;51.04;100670.69;4950492;28;19918;-87
2022/10/22 08:06:48;;;;;;;;;;;;;;;14.75;51.25;100665.75;4950957;28;19914;-87
2022/10/22 08:09:13;;;;;;;;;;;;;;;14.63;52.10;100669.47;4950815;28;19918;-90
2022/10/22 08:11:39;;;;;;;;;;;;;;;15.06;49.27;100672.28;4934137;29;19914;-89
2022/10/22 08:14:04;;;;;;;;;;;;;;;14.77;49.63;100665.72;4934734;29;19929;-88
2022/10/22 08:16:29;;;;;;;;;;;;;;;15.15;49.53;100673.00;4954830;29;20300;-88
2022/10/22 08:18:54;;;;;;;;;;;;;;;14.98;50.42;100667.09;4966104;29;20382;-87
2022/10/22 08:21:20;;;;;;;;;;;;;;;15.12;49.22;100670.41;4965956;29;19922;-90
2022/10/22 08:23:45;;;;;;;;;;;;;;;15.11;49.16;100662.47;4967810;28;20020;-89
2022/10/22 08:26:10;;;;;;;;;;;;;;;15.40;48.94;100667.22;4967613;29;19941;-89
2022/10/22 08:28:36;;;;;;;;;;;;;;;15.06;49.84;100667.84;4976561;28;19910;-90
2022/10/22 08:31:04;;;;;;;;;;;;;;;14.90;50.20;100666.38;4976355;28;19921;-88
2022/10/22 08:33:29;;;;;;;;;;;;;;;15.16;50.09;100652.63;4976542;28;19914;-88
2022/10/22 08:35:56;;;;;;;;;;;;;;;15.01;49.04;100659.06;4970111;28;20017;-88
2022/10/22 08:38:21;;;;;;;;;;;;;;;14.94;49.30;100653.00;4949981;29;19937;-89
2022/10/22 08:40:59;;;;;;;;;;;;;;;15.09;49.07;100657.19;4950043;29;20369;-87
2022/10/22 08:43:43;;;;;;;;;;;;;;;15.06;50.74;100661.66;4949973;28;19926;-88
2022/10/22 08:46:11;;;;;;;;;;;;;;;15.37;51.30;100648.69;4950563;29;19914;-88
2022/10/22 08:48:46;;;;;;;;;;;;;;;15.39;48.13;100647.72;4950119;28;19918;-90
2022/10/22 08:51:20;;;;;;;;;;;;;;;15.84;48.37;100643.31;4950278;28;20371;-89
2022/10/22 08:54:04;;;;;;;;;;;;;;;15.73;47.59;100644.38;4949862;29;19915;-88
2022/10/22 08:56:30;;;;;;;;;;;;;;;15.87;47.29;100636.13;4950477;29;19950;-88
2022/10/22 08:59:00;;;;;;;;;;;;;;;15.62;47.29;100637.56;4949264;29;20055;-90
2022/10/22 09:01:32;;;;;;;;;;;;;;;15.43;47.82;100635.25;4950364;29;19974;-90
2022/10/22 09:04:04;;;;;;;;;;;;;;;15.40;47.62;100619.38;4951846;29;19910;-90
2022/10/22 09:06:31;;;;;;;;;;;;;;;15.57;47.48;100632.31;4933986;29;20067;-93
2022/10/22 09:08:58;;;;;;;;;;;;;;;15.47;48.03;100626.31;4950258;29;19942;-90
2022/10/22 09:11:26;;;;;;;;;;;;;;;15.32;49.18;100618.63;4949859;29;19986;-92
2022/10/22 09:13:53;;;;;;;;;;;;;;;15.70;48.39;100614.31;4932140;29;20313;-91
2022/10/22 09:16:28;;;;;;;;;;;;;;;16.09;47.20;100606.38;4949752;29;19915;-95
2022/10/22 09:18:56;;;;;;;;;;;;;;;15.79;47.29;100616.81;4932500;29;19938;-92
2022/10/22 09:21:36;;;;;;;;;;;;;;;15.85;47.34;100605.13;4945095;28;19919;-91
2022/10/22 09:24:10;;;;;;;;;;;;;;;15.85;47.97;100603.38;4930364;29;19918;-91
2022/10/22 09:26:37;;;;;;;;;;;;;;;16.07;46.57;100606.41;4930323;29;19923;-90
2022/10/22 09:29:03;;;;;;;;;;;;;;;16.22;45.96;100601.63;4929765;29;19914;-90
2022/10/22 09:31:29;;;;;;;;;;;;;;;16.31;46.32;100609.38;4930083;29;19925;-89
2022/10/22 09:33:56;;;;;;;;;;;;;;;16.56;45.79;100587.47;4930159;29;19919;-89
2022/10/22 09:36:23;;;;;;;;;;;;;;;16.37;45.77;100589.75;4913104;29;20317;-90
2022/10/22 09:38:49;;;;;;;;;;;;;;;16.50;45.00;100591.19;4930128;29;19922;-90
2022/10/22 09:41:15;;;;;;;;;;;;;;;16.78;44.85;100587.81;4929939;29;19922;-90
2022/10/22 09:43:40;;;;;;;;;;;;;;;16.52;46.09;100586.69;4930242;29;19929;-91
2022/10/22 09:46:12;;;;;;;;;;;;;;;16.85;45.88;100588.53;4930114;29;19919;-89
2022/10/22 09:48:40;;;;;;;;;;;;;;;17.32;43.44;100583.72;4929473;29;20599;-89
2022/10/22 09:51:18;;;;;;;;;;;;;;;17.64;43.39;100577.44;4929788;29;19970;-88
2022/10/22 09:53:45;;;;;;;;;;;;;;;18.03;41.84;100566.44;4931198;29;19914;-88
2022/10/22 09:56:21;;;;;;;;;;;;;;;18.01;41.67;100559.41;4929719;29;20013;-89
2022/10/22 09:58:49;;;;;;;;;;;;;;;18.17;42.15;100555.31;4935999;29;19921;-88
2022/10/22 10:01:18;;;;;;;;;;;;;;;18.47;41.52;100541.00;4949586;28;19922;-88
2022/10/22 10:03:46;;;;;;;;;;;;;;;17.91;41.32;100539.28;4953182;29;19915;-90
2022/10/22 10:06:16;;;;;;;;;;;;;;;18.27;40.88;100531.00;4952209;28;19921;-88
2022/10/22 10:08:41;;;;;;;;;;;;;;;18.28;40.80;100538.94;4952333;29;20369;-89
2022/10/22 10:11:14;;;;;;;;;;;;;;;17.91;41.05;100540.16;4952880;28;19918;-89
2022/10/22 10:13:42;;;;;;;;;;;;;;;18.07;40.77;100529.84;4952322;29;20399;-89
2022/10/22 10:16:10;;;;;;;;;;;;;;;18.10;40.82;100526.22;4952680;29;19914;-89
2022/10/22 10:18:35;;;;;;;;;;;;;;;17.88;40.99;100518.88;4952364;29;19929;-89
2022/10/22 10:21:15;;;;;;;;;;;;;;;17.67;41.78;100515.97;4952383;29;19918;-88
2022/10/22 10:23:47;;;;;;;;;;;;;;;17.91;41.21;100517.94;4952463;29;19933;-87
2022/10/22 10:26:23;;;;;;;;;;;;;;;17.75;42.16;100518.41;4953116;28;19918;-88
2022/10/22 10:28:49;;;;;;;;;;;;;;;17.84;41.55;100503.88;4958240;29;19941;-88
2022/10/22 10:31:42;;;;;;;;;;;;;;;18.08;41.11;100508.44;4960048;29;20472;-89
2022/10/22 10:34:16;;;;;;;;;;;;;;;18.05;41.21;100495.19;4936034;29;19973;-89
2022/10/22 10:36:47;;;;;;;;;;;;;;;18.15;40.80;100500.22;4933144;29;20037;-89
2022/10/22 10:39:32;;;;;;;;;;;;;;;18.18;40.48;100487.66;4915809;29;19973;-89
2022/10/22 10:42:15;;;;;;;;;;;;;;;18.27;39.98;100478.44;4932518;29;19915;-88
2022/10/22 10:45:00;;;;;;;;;;;;;;;18.48;39.43;100474.16;4932133;29;19919;-88
2022/10/22 10:47:32;;;;;;;;;;;;;;;18.34;38.81;100468.44;4932717;29;19919;-88
2022/10/22 10:50:11;;;;;;;;;;;;;;;18.18;39.88;100457.41;4932279;29;19966;-87
2022/10/22 10:52:43;;;;;;;;;;;;;;;18.48;39.80;100460.81;4932489;29;19915;-90
2022/10/22 10:55:08;;;;;;;;;;;;;;;18.39;39.50;100459.31;4932790;29;19912;-88
2022/10/22 10:57:53;;;;;;;;;;;;;;;18.57;39.34;100444.44;4932650;29;19970;-92
2022/10/22 11:00:19;;;;;;;;;;;;;;;18.60;39.81;100435.47;4915440;29;19937;-89
2022/10/22 11:02:44;;;;;;;;;;;;;;;18.53;39.74;100440.13;4915648;29;19922;-89
2022/10/22 11:05:10;;;;;;;;;;;;;;;18.68;39.10;100435.19;4932920;29;19966;-90
2022/10/22 11:07:41;;;;;;;;;;;;;;;18.69;39.02;100426.22;4932650;29;19929;-90
2022/10/22 11:10:27;;;;;;;;;;;;;;;18.78;38.91;100429.44;4932185;29;19993;-89
2022/10/22 11:12:56;;;;;;;;;;;;;;;18.85;38.39;100426.56;4931707;29;19918;-89
2022/10/22 11:15:26;;;;;;;;;;;;;;;18.75;38.38;100420.63;4931916;29;20002;-91
2022/10/22 11:17:53;;;;;;;;;;;;;;;18.74;38.53;100413.56;4932478;29;19918;-91
2022/10/22 11:20:38;;;;;;;;;;;;;;;18.49;38.94;100408.25;4932195;29;20062;-91
2022/10/22 11:23:05;;;;;;;;;;;;;;;18.81;38.64;100406.19;4914883;29;20413;-91
2022/10/22 11:25:33;;;;;;;;;;;;;;;18.73;38.56;100391.31;4931971;29;19919;-90
2022/10/22 11:28:02;;;;;;;;;;;;;;;18.65;38.97;100395.22;4931892;29;19919;-89
2022/10/22 11:30:30;;;;;;;;;;;;;;;18.76;38.91;100390.31;4931696;29;19919;-88
2022/10/22 11:33:01;;;;;;;;;;;;;;;18.94;38.03;100391.47;4931581;29;19926;-89
2022/10/22 11:35:32;;;;;;;;;;;;;;;18.94;38.61;100376.28;4914431;29;20313;-91
2022/10/22 11:37:58;;;;;;;;;;;;;;;19.02;37.68;100367.09;4931810;29;20377;-92
2022/10/22 11:40:37;;;;;;;;;;;;;;;19.14;37.79;100371.97;4923743;29;19927;-89
2022/10/22 11:43:10;;;;;;;;;;;;;;;19.07;37.72;100373.13;4929192;29;19923;-91
2022/10/22 11:45:37;;;;;;;;;;;;;;;19.33;37.04;100361.38;4931646;29;19919;-92
2022/10/22 11:48:08;;;;;;;;;;;;;;;19.38;36.50;100356.72;4912469;29;19923;-93
2022/10/22 11:50:40;;;;;;;;;;;;;;;19.21;36.94;100353.88;4931372;29;19922;-91
2022/10/22 11:53:16;;;;;;;;;;;;;;;19.34;36.20;100349.78;4931459;29;20397;-90
2022/10/22 11:55:50;;;;;;;;;;;;;;;19.37;36.50;100348.75;4930342;29;19923;-91
2022/10/22 11:58:27;;;;;;;;;;;;;;;19.69;36.06;100342.06;4910424;29;19950;-91
2022/10/22 12:01:01;;;;;;;;;;;;;;;19.78;36.76;100341.69;4913515;29;19922;-92
2022/10/22 12:03:29;;;;;;;;;;;;;;;19.96;36.43;100347.22;4925259;29;19922;-88
2022/10/22 12:06:04;;;;;;;;;;;;;;;20.13;35.39;100333.94;4931199;29;19923;-87
2022/10/22 12:08:30;;;;;;;;;;;;;;;20.14;35.61;100324.97;4931170;29;19918;-91
2022/10/22 12:11:04;;;;;;;;;;;;;;;20.28;34.57;100327.03;4931504;29;19997;-90
2022/10/22 12:13:32;;;;;;;;;;;;;;;20.23;35.31;100330.84;4931947;29;19919;-88
2022/10/22 12:16:00;;;;;;;;;;;;;;;20.08;35.01;100325.25;4930955;29;20397;-89
2022/10/22 12:18:30;;;;;;;;;;;;;;;20.13;34.44;100311.66;4918849;29;19927;-89
2022/10/22 12:20:55;;;;;;;;;;;;;;;20.22;34.49;100308.56;4899631;29;20388;-90
2022/10/22 12:23:25;;;;;;;;;;;;;;;20.13;35.23;100306.31;4931817;29;19954;-91
2022/10/22 12:25:51;;;;;;;;;;;;;;;20.18;35.41;100305.13;4930446;29;19919;-88
2022/10/22 12:28:17;;;;;;;;;;;;;;;20.47;34.71;100304.75;4930875;29;19941;-89
2022/10/22 12:30:43;;;;;;;;;;;;;;;20.35;34.70;100312.41;4926102;29;20374;-89
2022/10/22 12:33:17;;;;;;;;;;;;;;;20.18;34.74;100307.81;4918130;29;19922;-90
2022/10/22 12:35:43;;;;;;;;;;;;;;;20.38;34.87;100298.00;4931597;29;19918;-89
2022/10/22 12:38:13;;;;;;;;;;;;;;;20.61;34.79;100288.03;4931403;29;19942;-91
2022/10/22 12:40:39;;;;;;;;;;;;;;;20.93;34.06;100292.75;4900979;29;19919;-90
2022/10/22 12:43:14;;;;;;;;;;;;;;;21.15;33.34;100282.75;4938158;29;19926;-93
2022/10/22 12:45:41;;;;;;;;;;;;;;;20.73;33.76;100277.63;4917147;29;19925;-91
2022/10/22 12:48:13;;;;;;;;;;;;;;;20.75;33.75;100280.22;4939153;29;19954;-92